sensor_id;sensor_type;location;lat;lon;timestamp;P1;durP1;ratioP1;P2;durP2;ratioP2
41643;SDS011;44236;48.098;11.582;2023-03-01T00:01:50;5.50;;;3.13;;
41643;SDS011;44236;48.098;11.582;2023-03-01T00:04:16;4.75;;;2.55;;
41643;SDS011;44236;48.098;11.582;2023-03-01T00:06:42;3.72;;;2.33;;
41643;SDS011;44236;48.098;11.582;2023-03-01T00:09:10;4.78;;;2.63;;
41643;SDS011;44236;48.098;11.582;2023-03-01T00:11:37;4.20;;;2.70;;
41643;SDS011;44236;48.098;11.582;2023-03-01T00:14:03;4.90;;;2.70;;
41643;SDS011;44236;48.098;11.582;2023-03-01T00:16:34;4.38;;;2.58;;
41643;SDS011;44236;48.098;11.582;2023-03-01T00:19:01;5.55;;;2.55;;
41643;SDS011;44236;48.098;11.582;2023-03-01T00:21:27;3.97;;;2.35;;
41643;SDS011;44236;48.098;11.582;2023-03-01T00:23:53;4.47;;;2.67;;
41643;SDS011;44236;48.098;11.582;2023-03-01T00:26:21;4.28;;;2.75;;
41643;SDS011;44236;48.098;11.582;2023-03-01T00:28:47;4.88;;;2.90;;
41643;SDS011;44236;48.098;11.582;2023-03-01T00:31:14;4.65;;;2.88;;
41643;SDS011;44236;48.098;11.582;2023-03-01T00:33:41;4.75;;;2.70;;
41643;SDS011;44236;48.098;11.582;2023-03-01T00:36:08;4.97;;;2.80;;
41643;SDS011;44236;48.098;11.582;2023-03-01T00:38:35;4.32;;;2.33;;
41643;SDS011;44236;48.098;11.582;2023-03-01T00:41:03;6.22;;;3.10;;
41643;SDS011;44236;48.098;11.582;2023-03-01T00:43:33;5.05;;;2.80;;
41643;SDS011;44236;48.098;11.582;2023-03-01T00:46:02;5.28;;;3.25;;
41643;SDS011;44236;48.098;11.582;2023-03-01T00:48:35;6.22;;;2.88;;
41643;SDS011;44236;48.098;11.582;2023-03-01T00:51:05;3.92;;;2.72;;
41643;SDS011;44236;48.098;11.582;2023-03-01T00:53:31;5.28;;;2.67;;
41643;SDS011;44236;48.098;11.582;2023-03-01T00:55:57;4.65;;;2.45;;
41643;SDS011;44236;48.098;11.582;2023-03-01T00:58:23;6.43;;;2.72;;
41643;SDS011;44236;48.098;11.582;2023-03-01T01:00:49;5.50;;;2.92;;
41643;SDS011;44236;48.098;11.582;2023-03-01T01:03:14;4.97;;;2.97;;
41643;SDS011;44236;48.098;11.582;2023-03-01T01:05:40;4.30;;;2.58;;
41643;SDS011;44236;48.098;11.582;2023-03-01T01:08:06;3.53;;;2.28;;
41643;SDS011;44236;48.098;11.582;2023-03-01T01:10:33;4.93;;;2.72;;
41643;SDS011;44236;48.098;11.582;2023-03-01T01:12:59;5.47;;;3.35;;
41643;SDS011;44236;48.098;11.582;2023-03-01T01:15:26;5.10;;;2.90;;
41643;SDS011;44236;48.098;11.582;2023-03-01T01:17:52;6.65;;;2.45;;
41643;SDS011;44236;48.098;11.582;2023-03-01T01:20:18;4.78;;;2.67;;
41643;SDS011;44236;48.098;11.582;2023-03-01T01:22:43;4.75;;;3.03;;
41643;SDS011;44236;48.098;11.582;2023-03-01T01:25:09;4.78;;;2.75;;
41643;SDS011;44236;48.098;11.582;2023-03-01T01:27:35;4.32;;;2.63;;
41643;SDS011;44236;48.098;11.582;2023-03-01T01:30:01;5.32;;;3.15;;
41643;SDS011;44236;48.098;11.582;2023-03-01T01:32:28;5.18;;;2.88;;
41643;SDS011;44236;48.098;11.582;2023-03-01T01:34:54;4.10;;;2.65;;
41643;SDS011;44236;48.098;11.582;2023-03-01T01:37:20;4.65;;;2.63;;
41643;SDS011;44236;48.098;11.582;2023-03-01T01:39:45;4.68;;;2.65;;
41643;SDS011;44236;48.098;11.582;2023-03-01T01:42:15;3.90;;;2.53;;
41643;SDS011;44236;48.098;11.582;2023-03-01T01:44:42;4.85;;;2.40;;
41643;SDS011;44236;48.098;11.582;2023-03-01T01:47:17;4.05;;;2.55;;
41643;SDS011;44236;48.098;11.582;2023-03-01T01:49:47;4.22;;;2.80;;
41643;SDS011;44236;48.098;11.582;2023-03-01T01:57:18;5.40;;;2.72;;
41643;SDS011;44236;48.098;11.582;2023-03-01T01:59:49;4.00;;;2.60;;
41643;SDS011;44236;48.098;11.582;2023-03-01T02:02:17;4.78;;;3.00;;
41643;SDS011;44236;48.098;11.582;2023-03-01T02:04:44;4.85;;;2.97;;
41643;SDS011;44236;48.098;11.582;2023-03-01T02:07:15;4.30;;;3.08;;
41643;SDS011;44236;48.098;11.582;2023-03-01T02:09:47;4.60;;;2.60;;
41643;SDS011;44236;48.098;11.582;2023-03-01T02:12:15;4.05;;;2.70;;
41643;SDS011;44236;48.098;11.582;2023-03-01T02:14:43;5.30;;;3.00;;
41643;SDS011;44236;48.098;11.582;2023-03-01T02:17:09;4.75;;;2.75;;
41643;SDS011;44236;48.098;11.582;2023-03-01T02:24:56;6.07;;;3.13;;
41643;SDS011;44236;48.098;11.582;2023-03-01T02:28:05;5.78;;;3.20;;
41643;SDS011;44236;48.098;11.582;2023-03-01T02:30:43;6.53;;;4.07;;
41643;SDS011;44236;48.098;11.582;2023-03-01T02:33:31;4.97;;;2.85;;
41643;SDS011;44236;48.098;11.582;2023-03-01T02:36:01;4.57;;;2.85;;
41643;SDS011;44236;48.098;11.582;2023-03-01T02:38:31;6.13;;;3.53;;
41643;SDS011;44236;48.098;11.582;2023-03-01T02:40:57;5.32;;;3.25;;
41643;SDS011;44236;48.098;11.582;2023-03-01T02:43:24;4.10;;;2.85;;
41643;SDS011;44236;48.098;11.582;2023-03-01T02:45:56;5.03;;;3.25;;
41643;SDS011;44236;48.098;11.582;2023-03-01T02:48:23;4.03;;;2.50;;
41643;SDS011;44236;48.098;11.582;2023-03-01T02:51:11;4.45;;;2.88;;
41643;SDS011;44236;48.098;11.582;2023-03-01T02:53:52;4.75;;;3.10;;
41643;SDS011;44236;48.098;11.582;2023-03-01T02:56:40;5.50;;;3.10;;
41643;SDS011;44236;48.098;11.582;2023-03-01T02:59:06;4.57;;;2.70;;
41643;SDS011;44236;48.098;11.582;2023-03-01T03:01:33;4.88;;;2.90;;
41643;SDS011;44236;48.098;11.582;2023-03-01T03:04:05;6.38;;;2.90;;
41643;SDS011;44236;48.098;11.582;2023-03-01T03:06:36;4.10;;;2.83;;
41643;SDS011;44236;48.098;11.582;2023-03-01T03:09:04;4.53;;;2.65;;
41643;SDS011;44236;48.098;11.582;2023-03-01T03:11:30;4.13;;;2.53;;
41643;SDS011;44236;48.098;11.582;2023-03-01T03:13:57;4.90;;;2.85;;
41643;SDS011;44236;48.098;11.582;2023-03-01T03:16:23;4.78;;;2.78;;
41643;SDS011;44236;48.098;11.582;2023-03-01T03:18:49;5.35;;;3.20;;
41643;SDS011;44236;48.098;11.582;2023-03-01T03:21:15;4.43;;;2.90;;
41643;SDS011;44236;48.098;11.582;2023-03-01T03:23:41;5.78;;;2.80;;
41643;SDS011;44236;48.098;11.582;2023-03-01T03:26:07;5.53;;;3.33;;
41643;SDS011;44236;48.098;11.582;2023-03-01T03:28:33;4.88;;;2.67;;
41643;SDS011;44236;48.098;11.582;2023-03-01T03:30:59;4.32;;;2.63;;
41643;SDS011;44236;48.098;11.582;2023-03-01T03:33:31;5.35;;;3.50;;
41643;SDS011;44236;48.098;11.582;2023-03-01T03:35:57;4.82;;;2.65;;
41643;SDS011;44236;48.098;11.582;2023-03-01T03:38:23;4.10;;;2.38;;
41643;SDS011;44236;48.098;11.582;2023-03-01T03:40:50;5.53;;;3.17;;
41643;SDS011;44236;48.098;11.582;2023-03-01T03:43:18;4.30;;;2.88;;
41643;SDS011;44236;48.098;11.582;2023-03-01T03:45:45;4.93;;;3.05;;
41643;SDS011;44236;48.098;11.582;2023-03-01T03:48:12;4.90;;;2.78;;
41643;SDS011;44236;48.098;11.582;2023-03-01T03:50:38;4.65;;;2.53;;
41643;SDS011;44236;48.098;11.582;2023-03-01T03:53:06;4.40;;;2.75;;
41643;SDS011;44236;48.098;11.582;2023-03-01T03:55:34;5.03;;;2.72;;
41643;SDS011;44236;48.098;11.582;2023-03-01T03:58:04;4.65;;;2.67;;
41643;SDS011;44236;48.098;11.582;2023-03-01T04:00:32;4.80;;;2.65;;
41643;SDS011;44236;48.098;11.582;2023-03-01T04:03:02;4.63;;;2.63;;
41643;SDS011;44236;48.098;11.582;2023-03-01T04:05:28;3.80;;;2.30;;
41643;SDS011;44236;48.098;11.582;2023-03-01T04:07:55;4.70;;;2.75;;
41643;SDS011;44236;48.098;11.582;2023-03-01T04:10:27;3.95;;;2.47;;
41643;SDS011;44236;48.098;11.582;2023-03-01T04:12:58;3.73;;;2.40;;
41643;SDS011;44236;48.098;11.582;2023-03-01T04:15:24;5.70;;;3.13;;
41643;SDS011;44236;48.098;11.582;2023-03-01T04:17:52;4.55;;;2.83;;
41643;SDS011;44236;48.098;11.582;2023-03-01T04:20:20;5.20;;;3.25;;
41643;SDS011;44236;48.098;11.582;2023-03-01T04:25:35;5.05;;;2.80;;
41643;SDS011;44236;48.098;11.582;2023-03-01T04:28:04;4.72;;;2.58;;
41643;SDS011;44236;48.098;11.582;2023-03-01T04:30:30;5.55;;;2.85;;
41643;SDS011;44236;48.098;11.582;2023-03-01T04:33:00;4.22;;;2.83;;
41643;SDS011;44236;48.098;11.582;2023-03-01T04:35:33;5.35;;;3.03;;
41643;SDS011;44236;48.098;11.582;2023-03-01T04:37:59;4.88;;;2.97;;
41643;SDS011;44236;48.098;11.582;2023-03-01T04:40:25;5.13;;;2.80;;
41643;SDS011;44236;48.098;11.582;2023-03-01T04:42:51;3.75;;;2.58;;
41643;SDS011;44236;48.098;11.582;2023-03-01T04:45:17;10.48;;;3.22;;
41643;SDS011;44236;48.098;11.582;2023-03-01T04:47:43;6.72;;;3.97;;
41643;SDS011;44236;48.098;11.582;2023-03-01T04:50:11;8.52;;;4.07;;
41643;SDS011;44236;48.098;11.582;2023-03-01T04:52:38;8.82;;;3.20;;
41643;SDS011;44236;48.098;11.582;2023-03-01T04:55:04;8.98;;;4.70;;
41643;SDS011;44236;48.098;11.582;2023-03-01T04:57:31;6.22;;;3.55;;
41643;SDS011;44236;48.098;11.582;2023-03-01T04:59:57;22.67;;;4.35;;
41643;SDS011;44236;48.098;11.582;2023-03-01T05:02:22;11.43;;;3.95;;
41643;SDS011;44236;48.098;11.582;2023-03-01T05:04:48;10.70;;;3.67;;
41643;SDS011;44236;48.098;11.582;2023-03-01T05:07:14;9.82;;;3.20;;
41643;SDS011;44236;48.098;11.582;2023-03-01T05:09:44;9.07;;;3.63;;
41643;SDS011;44236;48.098;11.582;2023-03-01T05:12:13;8.75;;;3.95;;
41643;SDS011;44236;48.098;11.582;2023-03-01T05:14:39;7.68;;;3.67;;
41643;SDS011;44236;48.098;11.582;2023-03-01T05:17:05;8.90;;;3.30;;
41643;SDS011;44236;48.098;11.582;2023-03-01T05:19:31;9.48;;;3.40;;
41643;SDS011;44236;48.098;11.582;2023-03-01T05:21:57;5.47;;;2.90;;
41643;SDS011;44236;48.098;11.582;2023-03-01T05:24:26;8.50;;;3.72;;
41643;SDS011;44236;48.098;11.582;2023-03-01T05:26:53;7.75;;;3.33;;
41643;SDS011;44236;48.098;11.582;2023-03-01T05:29:20;9.95;;;5.28;;
41643;SDS011;44236;48.098;11.582;2023-03-01T05:31:55;8.95;;;3.42;;
41643;SDS011;44236;48.098;11.582;2023-03-01T05:34:23;7.07;;;3.63;;
41643;SDS011;44236;48.098;11.582;2023-03-01T05:36:53;9.65;;;3.30;;
41643;SDS011;44236;48.098;11.582;2023-03-01T05:39:23;11.18;;;3.60;;
41643;SDS011;44236;48.098;11.582;2023-03-01T05:41:57;7.78;;;3.80;;
41643;SDS011;44236;48.098;11.582;2023-03-01T05:44:24;8.80;;;3.65;;
41643;SDS011;44236;48.098;11.582;2023-03-01T05:46:50;13.45;;;4.15;;
41643;SDS011;44236;48.098;11.582;2023-03-01T05:49:16;8.80;;;3.40;;
41643;SDS011;44236;48.098;11.582;2023-03-01T05:51:43;10.57;;;4.07;;
41643;SDS011;44236;48.098;11.582;2023-03-01T05:54:13;13.35;;;4.13;;
41643;SDS011;44236;48.098;11.582;2023-03-01T05:56:39;10.23;;;3.67;;
41643;SDS011;44236;48.098;11.582;2023-03-01T05:59:04;14.57;;;4.85;;
41643;SDS011;44236;48.098;11.582;2023-03-01T06:01:34;10.82;;;4.78;;
41643;SDS011;44236;48.098;11.582;2023-03-01T06:04:00;11.20;;;3.88;;
41643;SDS011;44236;48.098;11.582;2023-03-01T06:06:26;9.82;;;3.72;;
41643;SDS011;44236;48.098;11.582;2023-03-01T06:08:52;7.80;;;4.28;;
41643;SDS011;44236;48.098;11.582;2023-03-01T06:11:20;8.43;;;4.00;;
41643;SDS011;44236;48.098;11.582;2023-03-01T06:13:46;8.32;;;3.65;;
41643;SDS011;44236;48.098;11.582;2023-03-01T06:16:12;10.73;;;4.53;;
41643;SDS011;44236;48.098;11.582;2023-03-01T06:18:39;9.55;;;4.38;;
41643;SDS011;44236;48.098;11.582;2023-03-01T06:21:05;7.50;;;4.15;;
41643;SDS011;44236;48.098;11.582;2023-03-01T06:23:31;10.88;;;4.25;;
41643;SDS011;44236;48.098;11.582;2023-03-01T06:25:57;7.90;;;4.38;;
41643;SDS011;44236;48.098;11.582;2023-03-01T06:28:23;9.95;;;4.68;;
41643;SDS011;44236;48.098;11.582;2023-03-01T06:30:49;12.68;;;4.43;;
41643;SDS011;44236;48.098;11.582;2023-03-01T06:33:16;13.35;;;4.68;;
41643;SDS011;44236;48.098;11.582;2023-03-01T06:35:44;12.70;;;5.47;;
41643;SDS011;44236;48.098;11.582;2023-03-01T06:38:13;11.10;;;4.53;;
41643;SDS011;44236;48.098;11.582;2023-03-01T06:40:44;12.15;;;4.95;;
41643;SDS011;44236;48.098;11.582;2023-03-01T06:43:10;13.32;;;5.03;;
41643;SDS011;44236;48.098;11.582;2023-03-01T06:45:36;9.20;;;4.20;;
41643;SDS011;44236;48.098;11.582;2023-03-01T06:48:05;14.23;;;5.45;;
41643;SDS011;44236;48.098;11.582;2023-03-01T06:50:33;11.02;;;4.40;;
41643;SDS011;44236;48.098;11.582;2023-03-01T06:53:00;10.30;;;4.80;;
41643;SDS011;44236;48.098;11.582;2023-03-01T06:55:26;9.45;;;4.75;;
41643;SDS011;44236;48.098;11.582;2023-03-01T06:57:55;9.13;;;4.55;;
41643;SDS011;44236;48.098;11.582;2023-03-01T07:00:22;9.90;;;4.85;;
41643;SDS011;44236;48.098;11.582;2023-03-01T07:02:48;10.45;;;4.43;;
41643;SDS011;44236;48.098;11.582;2023-03-01T07:05:14;11.00;;;5.50;;
41643;SDS011;44236;48.098;11.582;2023-03-01T07:07:39;12.38;;;5.43;;
41643;SDS011;44236;48.098;11.582;2023-03-01T07:10:05;10.70;;;4.50;;
41643;SDS011;44236;48.098;11.582;2023-03-01T07:12:34;11.43;;;5.10;;
41643;SDS011;44236;48.098;11.582;2023-03-01T07:15:00;9.98;;;4.80;;
41643;SDS011;44236;48.098;11.582;2023-03-01T07:17:25;19.20;;;5.15;;
41643;SDS011;44236;48.098;11.582;2023-03-01T07:19:51;9.75;;;5.20;;
41643;SDS011;44236;48.098;11.582;2023-03-01T07:22:17;11.07;;;4.93;;
41643;SDS011;44236;48.098;11.582;2023-03-01T07:24:42;12.20;;;4.65;;
41643;SDS011;44236;48.098;11.582;2023-03-01T07:27:08;10.38;;;4.97;;
41643;SDS011;44236;48.098;11.582;2023-03-01T07:29:34;9.10;;;3.80;;
41643;SDS011;44236;48.098;11.582;2023-03-01T07:32:01;11.05;;;4.47;;
41643;SDS011;44236;48.098;11.582;2023-03-01T07:34:28;12.88;;;6.35;;
41643;SDS011;44236;48.098;11.582;2023-03-01T07:36:53;9.13;;;3.97;;
41643;SDS011;44236;48.098;11.582;2023-03-01T07:39:19;10.57;;;3.97;;
41643;SDS011;44236;48.098;11.582;2023-03-01T07:41:45;12.55;;;4.40;;
41643;SDS011;44236;48.098;11.582;2023-03-01T07:44:10;10.02;;;4.43;;
41643;SDS011;44236;48.098;11.582;2023-03-01T07:46:36;9.63;;;4.38;;
41643;SDS011;44236;48.098;11.582;2023-03-01T07:49:02;11.88;;;5.13;;
41643;SDS011;44236;48.098;11.582;2023-03-01T07:51:27;32.60;;;5.00;;
41643;SDS011;44236;48.098;11.582;2023-03-01T07:53:53;9.65;;;4.45;;
41643;SDS011;44236;48.098;11.582;2023-03-01T07:56:19;11.35;;;4.47;;
41643;SDS011;44236;48.098;11.582;2023-03-01T07:58:45;8.63;;;4.30;;
41643;SDS011;44236;48.098;11.582;2023-03-01T08:01:15;7.60;;;4.32;;
41643;SDS011;44236;48.098;11.582;2023-03-01T08:03:42;6.18;;;3.72;;
41643;SDS011;44236;48.098;11.582;2023-03-01T08:06:09;8.57;;;4.20;;
41643;SDS011;44236;48.098;11.582;2023-03-01T08:08:36;7.57;;;3.88;;
41643;SDS011;44236;48.098;11.582;2023-03-01T08:11:03;10.77;;;4.85;;
41643;SDS011;44236;48.098;11.582;2023-03-01T08:13:30;6.22;;;3.75;;
41643;SDS011;44236;48.098;11.582;2023-03-01T08:16:02;8.35;;;5.00;;
41643;SDS011;44236;48.098;11.582;2023-03-01T08:18:29;7.85;;;3.63;;
41643;SDS011;44236;48.098;11.582;2023-03-01T08:20:55;6.97;;;3.85;;
41643;SDS011;44236;48.098;11.582;2023-03-01T08:23:20;6.80;;;3.97;;
41643;SDS011;44236;48.098;11.582;2023-03-01T08:25:46;7.95;;;4.40;;
41643;SDS011;44236;48.098;11.582;2023-03-01T08:28:12;7.65;;;3.88;;
41643;SDS011;44236;48.098;11.582;2023-03-01T08:30:38;9.93;;;3.75;;
41643;SDS011;44236;48.098;11.582;2023-03-01T08:33:03;7.60;;;4.28;;
41643;SDS011;44236;48.098;11.582;2023-03-01T08:35:29;8.18;;;4.47;;
41643;SDS011;44236;48.098;11.582;2023-03-01T08:37:54;9.50;;;4.85;;
41643;SDS011;44236;48.098;11.582;2023-03-01T08:40:20;7.30;;;4.65;;
41643;SDS011;44236;48.098;11.582;2023-03-01T08:42:45;6.50;;;4.20;;
41643;SDS011;44236;48.098;11.582;2023-03-01T08:45:11;5.88;;;3.75;;
41643;SDS011;44236;48.098;11.582;2023-03-01T08:47:39;6.40;;;3.15;;
41643;SDS011;44236;48.098;11.582;2023-03-01T08:50:04;8.27;;;3.97;;
41643;SDS011;44236;48.098;11.582;2023-03-01T08:52:32;7.53;;;4.22;;
41643;SDS011;44236;48.098;11.582;2023-03-01T08:54:58;7.15;;;3.65;;
41643;SDS011;44236;48.098;11.582;2023-03-01T08:57:23;5.95;;;4.05;;
41643;SDS011;44236;48.098;11.582;2023-03-01T08:59:49;6.13;;;3.78;;
41643;SDS011;44236;48.098;11.582;2023-03-01T09:02:16;6.03;;;3.28;;
41643;SDS011;44236;48.098;11.582;2023-03-01T09:04:43;7.47;;;4.55;;
41643;SDS011;44236;48.098;11.582;2023-03-01T09:07:09;6.95;;;3.63;;
41643;SDS011;44236;48.098;11.582;2023-03-01T09:09:36;7.95;;;4.10;;
41643;SDS011;44236;48.098;11.582;2023-03-01T09:12:02;4.80;;;2.90;;
41643;SDS011;44236;48.098;11.582;2023-03-01T09:14:28;5.28;;;3.13;;
41643;SDS011;44236;48.098;11.582;2023-03-01T09:16:54;7.00;;;3.45;;
41643;SDS011;44236;48.098;11.582;2023-03-01T09:19:20;6.53;;;3.53;;
41643;SDS011;44236;48.098;11.582;2023-03-01T09:21:46;6.47;;;3.28;;
41643;SDS011;44236;48.098;11.582;2023-03-01T09:24:21;7.50;;;3.63;;
41643;SDS011;44236;48.098;11.582;2023-03-01T09:26:48;6.53;;;3.65;;
41643;SDS011;44236;48.098;11.582;2023-03-01T09:29:14;8.77;;;3.72;;
41643;SDS011;44236;48.098;11.582;2023-03-01T09:31:41;6.88;;;2.80;;
41643;SDS011;44236;48.098;11.582;2023-03-01T09:34:08;7.60;;;3.58;;
41643;SDS011;44236;48.098;11.582;2023-03-01T09:36:34;7.20;;;3.42;;
41643;SDS011;44236;48.098;11.582;2023-03-01T09:39:00;6.10;;;3.30;;
41643;SDS011;44236;48.098;11.582;2023-03-01T09:46:45;5.57;;;2.67;;
41643;SDS011;44236;48.098;11.582;2023-03-01T09:49:15;7.10;;;3.60;;
41643;SDS011;44236;48.098;11.582;2023-03-01T09:51:48;6.22;;;3.58;;
41643;SDS011;44236;48.098;11.582;2023-03-01T09:54:34;7.32;;;3.50;;
41643;SDS011;44236;48.098;11.582;2023-03-01T10:02:30;6.30;;;3.88;;
41643;SDS011;44236;48.098;11.582;2023-03-01T10:08:31;6.38;;;3.83;;
41643;SDS011;44236;48.098;11.582;2023-03-01T10:11:03;5.68;;;3.33;;
41643;SDS011;44236;48.098;11.582;2023-03-01T10:18:58;6.10;;;4.05;;
41643;SDS011;44236;48.098;11.582;2023-03-01T10:21:27;5.53;;;3.13;;
41643;SDS011;44236;48.098;11.582;2023-03-01T10:23:54;7.50;;;3.70;;
41643;SDS011;44236;48.098;11.582;2023-03-01T10:26:25;5.70;;;3.35;;
41643;SDS011;44236;48.098;11.582;2023-03-01T10:29:14;5.88;;;3.50;;
41643;SDS011;44236;48.098;11.582;2023-03-01T10:31:50;5.43;;;3.22;;
41643;SDS011;44236;48.098;11.582;2023-03-01T10:34:22;5.57;;;3.47;;
41643;SDS011;44236;48.098;11.582;2023-03-01T10:39:35;5.93;;;3.50;;
41643;SDS011;44236;48.098;11.582;2023-03-01T10:42:02;5.35;;;3.40;;
41643;SDS011;44236;48.098;11.582;2023-03-01T10:44:45;5.78;;;3.95;;
41643;SDS011;44236;48.098;11.582;2023-03-01T10:47:20;6.68;;;3.78;;
41643;SDS011;44236;48.098;11.582;2023-03-01T10:49:52;5.85;;;3.15;;
41643;SDS011;44236;48.098;11.582;2023-03-01T10:52:22;5.63;;;3.42;;
41643;SDS011;44236;48.098;11.582;2023-03-01T10:54:54;5.45;;;3.20;;
41643;SDS011;44236;48.098;11.582;2023-03-01T10:57:32;5.70;;;3.35;;
41643;SDS011;44236;48.098;11.582;2023-03-01T11:02:38;6.13;;;3.67;;
41643;SDS011;44236;48.098;11.582;2023-03-01T11:07:54;4.90;;;3.15;;
41643;SDS011;44236;48.098;11.582;2023-03-01T11:10:29;6.60;;;3.75;;
41643;SDS011;44236;48.098;11.582;2023-03-01T11:13:13;5.30;;;3.58;;
41643;SDS011;44236;48.098;11.582;2023-03-01T11:15:57;5.57;;;3.28;;
41643;SDS011;44236;48.098;11.582;2023-03-01T11:18:25;5.75;;;2.90;;
41643;SDS011;44236;48.098;11.582;2023-03-01T11:20:52;7.13;;;3.47;;
41643;SDS011;44236;48.098;11.582;2023-03-01T11:23:20;6.20;;;3.85;;
41643;SDS011;44236;48.098;11.582;2023-03-01T11:25:57;6.53;;;3.72;;
41643;SDS011;44236;48.098;11.582;2023-03-01T11:28:25;5.47;;;3.20;;
41643;SDS011;44236;48.098;11.582;2023-03-01T11:38:40;7.35;;;3.67;;
41643;SDS011;44236;48.098;11.582;2023-03-01T11:46:33;5.47;;;3.53;;
41643;SDS011;44236;48.098;11.582;2023-03-01T11:49:18;6.65;;;4.35;;
41643;SDS011;44236;48.098;11.582;2023-03-01T11:57:04;6.47;;;3.97;;
41643;SDS011;44236;48.098;11.582;2023-03-01T12:07:56;5.30;;;3.17;;
41643;SDS011;44236;48.098;11.582;2023-03-01T12:10:27;5.65;;;3.55;;
41643;SDS011;44236;48.098;11.582;2023-03-01T12:13:02;5.40;;;3.83;;
41643;SDS011;44236;48.098;11.582;2023-03-01T12:18:19;6.13;;;3.53;;
41643;SDS011;44236;48.098;11.582;2023-03-01T12:23:44;5.68;;;3.63;;
41643;SDS011;44236;48.098;11.582;2023-03-01T12:37:21;4.35;;;2.60;;
41643;SDS011;44236;48.098;11.582;2023-03-01T12:51:16;5.68;;;3.38;;
41643;SDS011;44236;48.098;11.582;2023-03-01T12:53:47;5.15;;;3.10;;
41643;SDS011;44236;48.098;11.582;2023-03-01T12:56:19;6.00;;;3.53;;
41643;SDS011;44236;48.098;11.582;2023-03-01T12:58:57;6.88;;;4.35;;
41643;SDS011;44236;48.098;11.582;2023-03-01T13:01:53;5.07;;;3.38;;
41643;SDS011;44236;48.098;11.582;2023-03-01T13:04:49;4.95;;;2.97;;
41643;SDS011;44236;48.098;11.582;2023-03-01T13:07:21;6.18;;;3.92;;
41643;SDS011;44236;48.098;11.582;2023-03-01T13:17:55;6.82;;;3.53;;
41643;SDS011;44236;48.098;11.582;2023-03-01T13:23:11;6.07;;;2.70;;
41643;SDS011;44236;48.098;11.582;2023-03-01T13:26:03;6.55;;;3.83;;
41643;SDS011;44236;48.098;11.582;2023-03-01T13:42:25;5.38;;;2.90;;
41643;SDS011;44236;48.098;11.582;2023-03-01T13:44:24;5.28;;;3.00;;
41643;SDS011;44236;48.098;11.582;2023-03-01T13:47:07;5.10;;;2.95;;
41643;SDS011;44236;48.098;11.582;2023-03-01T13:49:48;5.18;;;3.03;;
41643;SDS011;44236;48.098;11.582;2023-03-01T13:57:38;5.75;;;3.35;;
41643;SDS011;44236;48.098;11.582;2023-03-01T14:00:07;5.47;;;2.67;;
41643;SDS011;44236;48.098;11.582;2023-03-01T14:03:11;5.40;;;2.95;;
41643;SDS011;44236;48.098;11.582;2023-03-01T14:05:35;4.50;;;2.88;;
41643;SDS011;44236;48.098;11.582;2023-03-01T14:08:14;5.20;;;2.92;;
41643;SDS011;44236;48.098;11.582;2023-03-01T14:13:39;4.20;;;2.80;;
41643;SDS011;44236;48.098;11.582;2023-03-01T14:16:46;5.53;;;3.35;;
41643;SDS011;44236;48.098;11.582;2023-03-01T14:22:26;4.32;;;2.78;;
41643;SDS011;44236;48.098;11.582;2023-03-01T14:24:54;5.68;;;3.55;;
41643;SDS011;44236;48.098;11.582;2023-03-01T14:27:22;5.55;;;3.30;;
41643;SDS011;44236;48.098;11.582;2023-03-01T14:29:58;5.57;;;3.13;;
41643;SDS011;44236;48.098;11.582;2023-03-01T14:32:28;5.18;;;3.15;;
41643;SDS011;44236;48.098;11.582;2023-03-01T14:34:57;6.03;;;3.47;;
41643;SDS011;44236;48.098;11.582;2023-03-01T14:39:54;5.60;;;3.17;;
41643;SDS011;44236;48.098;11.582;2023-03-01T14:42:22;5.65;;;3.22;;
41643;SDS011;44236;48.098;11.582;2023-03-01T14:44:51;6.43;;;3.47;;
41643;SDS011;44236;48.098;11.582;2023-03-01T14:50:08;6.05;;;3.20;;
41643;SDS011;44236;48.098;11.582;2023-03-01T14:52:42;7.65;;;3.63;;
41643;SDS011;44236;48.098;11.582;2023-03-01T14:55:18;5.10;;;3.03;;
41643;SDS011;44236;48.098;11.582;2023-03-01T14:57:49;6.88;;;4.00;;
41643;SDS011;44236;48.098;11.582;2023-03-01T15:00:17;5.78;;;3.25;;
41643;SDS011;44236;48.098;11.582;2023-03-01T15:02:46;6.82;;;3.63;;
41643;SDS011;44236;48.098;11.582;2023-03-01T15:05:14;7.80;;;4.40;;
41643;SDS011;44236;48.098;11.582;2023-03-01T15:07:43;9.63;;;5.35;;
41643;SDS011;44236;48.098;11.582;2023-03-01T15:10:24;6.07;;;3.97;;
41643;SDS011;44236;48.098;11.582;2023-03-01T15:12:52;5.57;;;3.47;;
41643;SDS011;44236;48.098;11.582;2023-03-01T15:17:55;6.93;;;3.95;;
41643;SDS011;44236;48.098;11.582;2023-03-01T15:20:23;6.07;;;3.70;;
41643;SDS011;44236;48.098;11.582;2023-03-01T15:22:55;5.30;;;3.17;;
41643;SDS011;44236;48.098;11.582;2023-03-01T15:25:26;7.10;;;3.63;;
41643;SDS011;44236;48.098;11.582;2023-03-01T15:27:53;5.82;;;3.58;;
41643;SDS011;44236;48.098;11.582;2023-03-01T15:30:21;8.52;;;3.42;;
41643;SDS011;44236;48.098;11.582;2023-03-01T15:33:15;5.90;;;3.28;;
41643;SDS011;44236;48.098;11.582;2023-03-01T15:36:47;5.68;;;3.03;;
41643;SDS011;44236;48.098;11.582;2023-03-01T15:39:02;6.57;;;3.35;;
41643;SDS011;44236;48.098;11.582;2023-03-01T15:43:56;6.10;;;3.67;;
41643;SDS011;44236;48.098;11.582;2023-03-01T15:46:38;5.20;;;3.35;;
41643;SDS011;44236;48.098;11.582;2023-03-01T15:49:05;4.82;;;3.15;;
41643;SDS011;44236;48.098;11.582;2023-03-01T15:52:02;7.03;;;3.80;;
41643;SDS011;44236;48.098;11.582;2023-03-01T15:54:29;7.10;;;3.90;;
41643;SDS011;44236;48.098;11.582;2023-03-01T15:56:55;7.00;;;4.10;;
41643;SDS011;44236;48.098;11.582;2023-03-01T15:59:21;8.02;;;4.25;;
41643;SDS011;44236;48.098;11.582;2023-03-01T16:01:47;5.63;;;3.70;;
41643;SDS011;44236;48.098;11.582;2023-03-01T16:04:14;5.30;;;3.10;;
41643;SDS011;44236;48.098;11.582;2023-03-01T16:06:52;6.13;;;3.90;;
41643;SDS011;44236;48.098;11.582;2023-03-01T16:09:22;20.13;;;10.57;;
41643;SDS011;44236;48.098;11.582;2023-03-01T16:11:49;23.10;;;12.68;;
41643;SDS011;44236;48.098;11.582;2023-03-01T16:14:15;17.67;;;11.30;;
41643;SDS011;44236;48.098;11.582;2023-03-01T16:16:41;16.73;;;10.80;;
41643;SDS011;44236;48.098;11.582;2023-03-01T16:19:08;16.73;;;9.27;;
41643;SDS011;44236;48.098;11.582;2023-03-01T16:21:33;13.00;;;8.38;;
41643;SDS011;44236;48.098;11.582;2023-03-01T16:23:59;9.55;;;6.28;;
41643;SDS011;44236;48.098;11.582;2023-03-01T16:26:25;12.55;;;6.47;;
41643;SDS011;44236;48.098;11.582;2023-03-01T16:28:53;11.48;;;7.18;;
41643;SDS011;44236;48.098;11.582;2023-03-01T16:31:20;11.63;;;5.68;;
41643;SDS011;44236;48.098;11.582;2023-03-01T16:33:47;13.45;;;5.88;;
41643;SDS011;44236;48.098;11.582;2023-03-01T16:36:15;6.95;;;4.68;;
41643;SDS011;44236;48.098;11.582;2023-03-01T16:38:43;6.82;;;4.38;;
41643;SDS011;44236;48.098;11.582;2023-03-01T16:41:13;13.00;;;5.88;;
41643;SDS011;44236;48.098;11.582;2023-03-01T16:43:40;9.88;;;4.82;;
41643;SDS011;44236;48.098;11.582;2023-03-01T16:46:13;8.90;;;5.10;;
41643;SDS011;44236;48.098;11.582;2023-03-01T16:48:40;7.97;;;4.57;;
41643;SDS011;44236;48.098;11.582;2023-03-01T16:51:07;8.02;;;3.92;;
41643;SDS011;44236;48.098;11.582;2023-03-01T16:53:34;9.35;;;5.50;;
41643;SDS011;44236;48.098;11.582;2023-03-01T16:56:04;14.48;;;4.65;;
41643;SDS011;44236;48.098;11.582;2023-03-01T16:58:32;10.93;;;4.35;;
41643;SDS011;44236;48.098;11.582;2023-03-01T17:01:03;8.95;;;4.70;;
41643;SDS011;44236;48.098;11.582;2023-03-01T17:03:35;13.57;;;4.63;;
41643;SDS011;44236;48.098;11.582;2023-03-01T17:06:09;9.25;;;4.15;;
41643;SDS011;44236;48.098;11.582;2023-03-01T17:08:37;10.63;;;4.75;;